sensor_id;sensor_type;location;lat;lon;timestamp;P1;durP1;ratioP1;P2;durP2;ratioP2
1106;SDS011;540;49.448;8.612;2023-02-21T00:02:22;6.88;;;3.35;;
1106;SDS011;540;49.448;8.612;2023-02-21T00:05:07;11.43;;;3.97;;
1106;SDS011;540;49.448;8.612;2023-02-21T00:07:53;7.80;;;3.27;;
1106;SDS011;540;49.448;8.612;2023-02-21T00:10:39;13.23;;;3.72;;
1106;SDS011;540;49.448;8.612;2023-02-21T00:13:25;9.13;;;4.20;;
1106;SDS011;540;49.448;8.612;2023-02-21T00:16:13;7.18;;;3.85;;
1106;SDS011;540;49.448;8.612;2023-02-21T00:18:59;8.85;;;3.28;;
1106;SDS011;540;49.448;8.612;2023-02-21T00:21:44;12.98;;;3.78;;
1106;SDS011;540;49.448;8.612;2023-02-21T00:24:30;9.10;;;3.90;;
1106;SDS011;540;49.448;8.612;2023-02-21T00:27:16;8.02;;;3.15;;
1106;SDS011;540;49.448;8.612;2023-02-21T00:30:02;6.97;;;3.08;;
1106;SDS011;540;49.448;8.612;2023-02-21T00:32:47;10.55;;;3.45;;
1106;SDS011;540;49.448;8.612;2023-02-21T00:35:33;6.88;;;3.45;;
1106;SDS011;540;49.448;8.612;2023-02-21T00:38:18;11.43;;;4.07;;
1106;SDS011;540;49.448;8.612;2023-02-21T00:41:04;10.18;;;3.92;;
1106;SDS011;540;49.448;8.612;2023-02-21T00:43:51;7.07;;;3.60;;
1106;SDS011;540;49.448;8.612;2023-02-21T00:46:36;9.85;;;3.20;;
1106;SDS011;540;49.448;8.612;2023-02-21T00:49:21;6.68;;;3.28;;
1106;SDS011;540;49.448;8.612;2023-02-21T00:52:06;14.40;;;3.65;;
1106;SDS011;540;49.448;8.612;2023-02-21T00:54:52;12.15;;;3.70;;
1106;SDS011;540;49.448;8.612;2023-02-21T00:57:37;8.68;;;3.80;;
1106;SDS011;540;49.448;8.612;2023-02-21T01:00:24;6.10;;;3.25;;
1106;SDS011;540;49.448;8.612;2023-02-21T01:03:09;9.38;;;3.80;;
1106;SDS011;540;49.448;8.612;2023-02-21T01:05:55;16.63;;;4.77;;
1106;SDS011;540;49.448;8.612;2023-02-21T01:08:41;7.22;;;3.92;;
1106;SDS011;540;49.448;8.612;2023-02-21T01:11:28;7.50;;;3.50;;
1106;SDS011;540;49.448;8.612;2023-02-21T01:14:14;7.93;;;3.90;;
1106;SDS011;540;49.448;8.612;2023-02-21T01:17:00;11.65;;;4.07;;
1106;SDS011;540;49.448;8.612;2023-02-21T01:19:46;8.75;;;3.92;;
1106;SDS011;540;49.448;8.612;2023-02-21T01:22:31;13.68;;;4.22;;
1106;SDS011;540;49.448;8.612;2023-02-21T01:25:16;10.68;;;4.13;;
1106;SDS011;540;49.448;8.612;2023-02-21T01:28:01;10.73;;;3.63;;
1106;SDS011;540;49.448;8.612;2023-02-21T01:30:47;11.23;;;3.47;;
1106;SDS011;540;49.448;8.612;2023-02-21T01:33:35;7.60;;;3.92;;
1106;SDS011;540;49.448;8.612;2023-02-21T01:36:21;11.18;;;4.40;;
1106;SDS011;540;49.448;8.612;2023-02-21T01:39:07;7.82;;;4.07;;
1106;SDS011;540;49.448;8.612;2023-02-21T01:41:52;10.40;;;4.20;;
1106;SDS011;540;49.448;8.612;2023-02-21T01:44:38;5.65;;;3.35;;
1106;SDS011;540;49.448;8.612;2023-02-21T01:47:25;14.20;;;4.20;;
1106;SDS011;540;49.448;8.612;2023-02-21T01:50:14;8.20;;;3.67;;
1106;SDS011;540;49.448;8.612;2023-02-21T01:53:04;8.20;;;3.75;;
1106;SDS011;540;49.448;8.612;2023-02-21T01:55:52;9.73;;;3.67;;
1106;SDS011;540;49.448;8.612;2023-02-21T01:58:39;7.18;;;3.65;;
1106;SDS011;540;49.448;8.612;2023-02-21T02:01:30;7.80;;;3.42;;
1106;SDS011;540;49.448;8.612;2023-02-21T02:04:22;11.00;;;3.85;;
1106;SDS011;540;49.448;8.612;2023-02-21T02:07:10;10.50;;;4.68;;
1106;SDS011;540;49.448;8.612;2023-02-21T02:09:55;10.80;;;4.50;;
1106;SDS011;540;49.448;8.612;2023-02-21T02:15:37;12.77;;;4.30;;
1106;SDS011;540;49.448;8.612;2023-02-21T02:18:15;10.20;;;4.07;;
1106;SDS011;540;49.448;8.612;2023-02-21T02:21:18;8.15;;;3.80;;
1106;SDS011;540;49.448;8.612;2023-02-21T02:27:15;6.55;;;3.65;;
1106;SDS011;540;49.448;8.612;2023-02-21T02:30:03;8.55;;;4.18;;
1106;SDS011;540;49.448;8.612;2023-02-21T02:32:55;11.07;;;4.28;;
1106;SDS011;540;49.448;8.612;2023-02-21T02:35:48;11.50;;;4.80;;
1106;SDS011;540;49.448;8.612;2023-02-21T02:38:22;10.07;;;3.83;;
1106;SDS011;540;49.448;8.612;2023-02-21T02:40:56;9.93;;;4.40;;
1106;SDS011;540;49.448;8.612;2023-02-21T02:43:30;8.50;;;4.82;;
1106;SDS011;540;49.448;8.612;2023-02-21T02:46:01;9.90;;;4.82;;
1106;SDS011;540;49.448;8.612;2023-02-21T02:48:35;6.38;;;3.58;;
1106;SDS011;540;49.448;8.612;2023-02-21T02:51:08;6.70;;;3.22;;
1106;SDS011;540;49.448;8.612;2023-02-21T02:53:39;8.70;;;3.85;;
1106;SDS011;540;49.448;8.612;2023-02-21T02:56:08;8.57;;;3.55;;
1106;SDS011;540;49.448;8.612;2023-02-21T02:58:39;8.40;;;3.60;;
1106;SDS011;540;49.448;8.612;2023-02-21T03:01:16;9.68;;;4.75;;
1106;SDS011;540;49.448;8.612;2023-02-21T03:04:02;11.52;;;4.65;;
1106;SDS011;540;49.448;8.612;2023-02-21T03:06:43;11.52;;;5.45;;
1106;SDS011;540;49.448;8.612;2023-02-21T03:09:17;9.68;;;4.55;;
1106;SDS011;540;49.448;8.612;2023-02-21T03:11:53;13.23;;;4.82;;
1106;SDS011;540;49.448;8.612;2023-02-21T03:14:28;13.82;;;5.28;;
1106;SDS011;540;49.448;8.612;2023-02-21T03:17:01;8.50;;;3.78;;
1106;SDS011;540;49.448;8.612;2023-02-21T03:19:34;8.82;;;3.22;;
1106;SDS011;540;49.448;8.612;2023-02-21T03:22:07;9.02;;;3.83;;
1106;SDS011;540;49.448;8.612;2023-02-21T03:24:38;11.68;;;3.65;;
1106;SDS011;540;49.448;8.612;2023-02-21T03:27:09;8.18;;;3.90;;
1106;SDS011;540;49.448;8.612;2023-02-21T03:29:38;16.88;;;3.83;;
1106;SDS011;540;49.448;8.612;2023-02-21T03:32:07;9.25;;;4.38;;
1106;SDS011;540;49.448;8.612;2023-02-21T03:34:38;9.73;;;4.07;;
1106;SDS011;540;49.448;8.612;2023-02-21T03:37:10;10.43;;;4.10;;
1106;SDS011;540;49.448;8.612;2023-02-21T03:39:46;8.40;;;3.95;;
1106;SDS011;540;49.448;8.612;2023-02-21T03:42:14;8.63;;;4.05;;
1106;SDS011;540;49.448;8.612;2023-02-21T03:44:42;9.07;;;3.83;;
1106;SDS011;540;49.448;8.612;2023-02-21T03:47:09;6.88;;;4.15;;
1106;SDS011;540;49.448;8.612;2023-02-21T03:49:37;8.60;;;3.95;;
1106;SDS011;540;49.448;8.612;2023-02-21T03:52:05;9.93;;;4.25;;
1106;SDS011;540;49.448;8.612;2023-02-21T03:54:36;6.43;;;3.72;;
1106;SDS011;540;49.448;8.612;2023-02-21T03:57:03;7.68;;;3.40;;
1106;SDS011;540;49.448;8.612;2023-02-21T03:59:31;6.65;;;4.00;;
1106;SDS011;540;49.448;8.612;2023-02-21T04:01:59;12.93;;;4.55;;
1106;SDS011;540;49.448;8.612;2023-02-21T04:04:27;10.10;;;4.60;;
1106;SDS011;540;49.448;8.612;2023-02-21T04:06:55;10.35;;;4.07;;
1106;SDS011;540;49.448;8.612;2023-02-21T04:09:22;8.02;;;3.65;;
1106;SDS011;540;49.448;8.612;2023-02-21T04:11:53;10.95;;;5.30;;
1106;SDS011;540;49.448;8.612;2023-02-21T04:14:20;13.98;;;4.65;;
1106;SDS011;540;49.448;8.612;2023-02-21T04:16:48;10.73;;;4.75;;
1106;SDS011;540;49.448;8.612;2023-02-21T04:19:16;9.80;;;4.30;;
1106;SDS011;540;49.448;8.612;2023-02-21T04:21:44;12.63;;;4.45;;
1106;SDS011;540;49.448;8.612;2023-02-21T04:24:12;14.13;;;4.40;;
1106;SDS011;540;49.448;8.612;2023-02-21T04:26:40;12.27;;;3.88;;
1106;SDS011;540;49.448;8.612;2023-02-21T04:29:09;9.35;;;4.00;;
1106;SDS011;540;49.448;8.612;2023-02-21T04:31:37;16.13;;;7.63;;
1106;SDS011;540;49.448;8.612;2023-02-21T04:34:05;13.88;;;5.78;;
1106;SDS011;540;49.448;8.612;2023-02-21T04:36:37;15.55;;;6.63;;
1106;SDS011;540;49.448;8.612;2023-02-21T04:39:05;10.50;;;5.10;;
1106;SDS011;540;49.448;8.612;2023-02-21T04:41:33;11.48;;;5.65;;
1106;SDS011;540;49.448;8.612;2023-02-21T04:44:01;11.82;;;5.68;;
1106;SDS011;540;49.448;8.612;2023-02-21T04:46:30;13.30;;;5.57;;
1106;SDS011;540;49.448;8.612;2023-02-21T04:48:59;11.95;;;5.25;;
1106;SDS011;540;49.448;8.612;2023-02-21T04:51:27;8.65;;;4.25;;
1106;SDS011;540;49.448;8.612;2023-02-21T04:53:54;9.98;;;4.60;;
1106;SDS011;540;49.448;8.612;2023-02-21T04:56:23;19.73;;;8.32;;
1106;SDS011;540;49.448;8.612;2023-02-21T04:58:53;10.18;;;5.07;;
1106;SDS011;540;49.448;8.612;2023-02-21T05:01:22;12.88;;;4.72;;
1106;SDS011;540;49.448;8.612;2023-02-21T05:03:54;9.05;;;4.93;;
1106;SDS011;540;49.448;8.612;2023-02-21T05:06:23;17.02;;;5.60;;
1106;SDS011;540;49.448;8.612;2023-02-21T05:08:52;12.68;;;5.55;;
1106;SDS011;540;49.448;8.612;2023-02-21T05:11:20;13.85;;;4.68;;
1106;SDS011;540;49.448;8.612;2023-02-21T05:13:48;10.48;;;4.35;;
1106;SDS011;540;49.448;8.612;2023-02-21T05:16:17;10.25;;;4.47;;
1106;SDS011;540;49.448;8.612;2023-02-21T05:18:46;12.80;;;5.00;;
1106;SDS011;540;49.448;8.612;2023-02-21T05:21:17;12.57;;;5.18;;
1106;SDS011;540;49.448;8.612;2023-02-21T05:23:46;9.02;;;5.35;;
1106;SDS011;540;49.448;8.612;2023-02-21T05:26:22;15.60;;;5.40;;
1106;SDS011;540;49.448;8.612;2023-02-21T05:28:51;13.05;;;5.38;;
1106;SDS011;540;49.448;8.612;2023-02-21T05:31:19;11.15;;;4.95;;
1106;SDS011;540;49.448;8.612;2023-02-21T05:33:47;9.40;;;5.05;;
1106;SDS011;540;49.448;8.612;2023-02-21T05:36:17;11.23;;;6.15;;
1106;SDS011;540;49.448;8.612;2023-02-21T05:38:45;8.93;;;4.40;;
1106;SDS011;540;49.448;8.612;2023-02-21T05:41:13;14.38;;;5.50;;
1106;SDS011;540;49.448;8.612;2023-02-21T05:43:42;11.63;;;5.07;;
1106;SDS011;540;49.448;8.612;2023-02-21T05:46:17;9.63;;;5.03;;
1106;SDS011;540;49.448;8.612;2023-02-21T05:48:46;9.88;;;4.68;;
1106;SDS011;540;49.448;8.612;2023-02-21T05:51:15;12.52;;;4.85;;
1106;SDS011;540;49.448;8.612;2023-02-21T05:53:44;10.32;;;5.82;;
1106;SDS011;540;49.448;8.612;2023-02-21T05:56:13;16.65;;;7.00;;
1106;SDS011;540;49.448;8.612;2023-02-21T05:58:41;10.60;;;5.80;;
1106;SDS011;540;49.448;8.612;2023-02-21T06:01:09;11.07;;;6.05;;
1106;SDS011;540;49.448;8.612;2023-02-21T06:03:37;14.63;;;5.05;;
1106;SDS011;540;49.448;8.612;2023-02-21T06:06:05;11.88;;;5.53;;
1106;SDS011;540;49.448;8.612;2023-02-21T06:08:41;11.95;;;6.03;;
1106;SDS011;540;49.448;8.612;2023-02-21T06:11:10;15.18;;;7.55;;
1106;SDS011;540;49.448;8.612;2023-02-21T06:13:39;15.32;;;5.22;;
1106;SDS011;540;49.448;8.612;2023-02-21T06:16:06;12.43;;;5.90;;
1106;SDS011;540;49.448;8.612;2023-02-21T06:18:34;12.20;;;5.97;;
1106;SDS011;540;49.448;8.612;2023-02-21T06:21:02;13.27;;;6.40;;
1106;SDS011;540;49.448;8.612;2023-02-21T06:23:30;20.40;;;8.23;;
1106;SDS011;540;49.448;8.612;2023-02-21T06:25:59;13.82;;;6.18;;
1106;SDS011;540;49.448;8.612;2023-02-21T06:28:27;15.70;;;7.00;;
1106;SDS011;540;49.448;8.612;2023-02-21T06:30:55;14.82;;;7.90;;
1106;SDS011;540;49.448;8.612;2023-02-21T06:33:24;15.63;;;7.53;;
1106;SDS011;540;49.448;8.612;2023-02-21T06:35:52;13.93;;;6.97;;
1106;SDS011;540;49.448;8.612;2023-02-21T06:38:19;15.38;;;6.20;;
1106;SDS011;540;49.448;8.612;2023-02-21T06:40:47;15.60;;;6.40;;
1106;SDS011;540;49.448;8.612;2023-02-21T06:43:17;12.20;;;5.45;;
1106;SDS011;540;49.448;8.612;2023-02-21T06:45:44;13.82;;;6.22;;
1106;SDS011;540;49.448;8.612;2023-02-21T06:48:13;13.13;;;5.53;;
1106;SDS011;540;49.448;8.612;2023-02-21T06:50:41;10.55;;;5.97;;
1106;SDS011;540;49.448;8.612;2023-02-21T06:53:09;11.70;;;5.93;;
1106;SDS011;540;49.448;8.612;2023-02-21T06:55:37;12.63;;;6.07;;
1106;SDS011;540;49.448;8.612;2023-02-21T06:58:06;10.25;;;4.97;;
1106;SDS011;540;49.448;8.612;2023-02-21T07:00:35;10.98;;;5.22;;
1106;SDS011;540;49.448;8.612;2023-02-21T07:03:03;16.00;;;5.47;;
1106;SDS011;540;49.448;8.612;2023-02-21T07:05:31;14.75;;;6.03;;
1106;SDS011;540;49.448;8.612;2023-02-21T07:07:59;17.85;;;6.10;;
1106;SDS011;540;49.448;8.612;2023-02-21T07:10:28;13.57;;;6.03;;
1106;SDS011;540;49.448;8.612;2023-02-21T07:12:56;14.90;;;5.93;;
1106;SDS011;540;49.448;8.612;2023-02-21T07:15:24;13.75;;;4.95;;
1106;SDS011;540;49.448;8.612;2023-02-21T07:17:53;18.73;;;5.40;;
1106;SDS011;540;49.448;8.612;2023-02-21T07:20:21;19.67;;;6.78;;
1106;SDS011;540;49.448;8.612;2023-02-21T07:22:49;10.55;;;5.22;;
1106;SDS011;540;49.448;8.612;2023-02-21T07:25:17;11.48;;;5.63;;
1106;SDS011;540;49.448;8.612;2023-02-21T07:27:47;11.10;;;5.00;;
1106;SDS011;540;49.448;8.612;2023-02-21T07:30:17;11.98;;;5.10;;
1106;SDS011;540;49.448;8.612;2023-02-21T07:32:46;13.63;;;5.35;;
1106;SDS011;540;49.448;8.612;2023-02-21T07:35:17;10.27;;;5.10;;
1106;SDS011;540;49.448;8.612;2023-02-21T07:37:45;11.30;;;5.35;;
1106;SDS011;540;49.448;8.612;2023-02-21T07:40:13;11.85;;;5.80;;
1106;SDS011;540;49.448;8.612;2023-02-21T07:42:41;11.68;;;6.57;;
1106;SDS011;540;49.448;8.612;2023-02-21T07:45:10;14.65;;;5.82;;
1106;SDS011;540;49.448;8.612;2023-02-21T07:47:38;13.60;;;6.78;;
1106;SDS011;540;49.448;8.612;2023-02-21T07:50:06;31.73;;;6.15;;
1106;SDS011;540;49.448;8.612;2023-02-21T07:52:36;11.60;;;5.60;;
1106;SDS011;540;49.448;8.612;2023-02-21T07:55:04;14.15;;;5.25;;
1106;SDS011;540;49.448;8.612;2023-02-21T07:57:32;13.77;;;6.18;;
1106;SDS011;540;49.448;8.612;2023-02-21T08:00:00;12.02;;;5.43;;
1106;SDS011;540;49.448;8.612;2023-02-21T08:02:28;9.63;;;5.72;;
1106;SDS011;540;49.448;8.612;2023-02-21T08:04:56;22.15;;;10.45;;
1106;SDS011;540;49.448;8.612;2023-02-21T08:07:24;13.73;;;7.20;;
1106;SDS011;540;49.448;8.612;2023-02-21T08:09:53;11.32;;;6.30;;
1106;SDS011;540;49.448;8.612;2023-02-21T08:12:21;9.32;;;6.78;;
1106;SDS011;540;49.448;8.612;2023-02-21T08:14:49;11.82;;;6.65;;
1106;SDS011;540;49.448;8.612;2023-02-21T08:17:16;13.50;;;6.97;;
1106;SDS011;540;49.448;8.612;2023-02-21T08:19:44;11.27;;;7.30;;
1106;SDS011;540;49.448;8.612;2023-02-21T08:22:12;13.73;;;6.70;;
1106;SDS011;540;49.448;8.612;2023-02-21T08:24:40;9.80;;;6.35;;
1106;SDS011;540;49.448;8.612;2023-02-21T08:27:09;13.70;;;6.60;;
1106;SDS011;540;49.448;8.612;2023-02-21T08:29:37;15.23;;;5.93;;
1106;SDS011;540;49.448;8.612;2023-02-21T08:32:05;10.82;;;6.55;;
1106;SDS011;540;49.448;8.612;2023-02-21T08:34:34;12.30;;;6.28;;
1106;SDS011;540;49.448;8.612;2023-02-21T08:37:02;9.32;;;5.93;;
1106;SDS011;540;49.448;8.612;2023-02-21T08:39:31;14.23;;;6.07;;
1106;SDS011;540;49.448;8.612;2023-02-21T08:41:59;10.88;;;6.68;;
1106;SDS011;540;49.448;8.612;2023-02-21T08:44:28;10.85;;;6.40;;
1106;SDS011;540;49.448;8.612;2023-02-21T08:46:56;11.15;;;7.90;;
1106;SDS011;540;49.448;8.612;2023-02-21T08:49:24;15.88;;;6.78;;
1106;SDS011;540;49.448;8.612;2023-02-21T08:51:51;9.73;;;5.70;;
1106;SDS011;540;49.448;8.612;2023-02-21T08:54:20;10.52;;;6.60;;
1106;SDS011;540;49.448;8.612;2023-02-21T08:56:50;9.55;;;6.03;;
1106;SDS011;540;49.448;8.612;2023-02-21T08:59:19;13.13;;;6.80;;
1106;SDS011;540;49.448;8.612;2023-02-21T09:01:50;12.70;;;6.82;;
1106;SDS011;540;49.448;8.612;2023-02-21T09:04:20;10.10;;;6.18;;
1106;SDS011;540;49.448;8.612;2023-02-21T09:06:50;10.88;;;5.78;;
1106;SDS011;540;49.448;8.612;2023-02-21T09:09:20;11.20;;;6.70;;
1106;SDS011;540;49.448;8.612;2023-02-21T09:11:50;12.15;;;6.18;;
1106;SDS011;540;49.448;8.612;2023-02-21T09:14:19;11.55;;;6.35;;
1106;SDS011;540;49.448;8.612;2023-02-21T09:16:50;14.85;;;8.43;;
1106;SDS011;540;49.448;8.612;2023-02-21T09:19:20;10.65;;;7.05;;
1106;SDS011;540;49.448;8.612;2023-02-21T09:21:50;12.15;;;7.53;;
1106;SDS011;540;49.448;8.612;2023-02-21T09:24:21;10.15;;;7.35;;
1106;SDS011;540;49.448;8.612;2023-02-21T09:26:51;10.50;;;7.30;;
1106;SDS011;540;49.448;8.612;2023-02-21T09:29:22;9.82;;;7.35;;
1106;SDS011;540;49.448;8.612;2023-02-21T09:32:01;13.18;;;6.90;;
1106;SDS011;540;49.448;8.612;2023-02-21T09:34:32;14.20;;;7.25;;
1106;SDS011;540;49.448;8.612;2023-02-21T09:37:03;13.10;;;7.43;;
1106;SDS011;540;49.448;8.612;2023-02-21T09:39:35;11.00;;;7.55;;
1106;SDS011;540;49.448;8.612;2023-02-21T09:42:05;15.65;;;7.63;;
1106;SDS011;540;49.448;8.612;2023-02-21T09:44:35;11.38;;;7.13;;
1106;SDS011;540;49.448;8.612;2023-02-21T09:47:06;10.02;;;7.20;;
1106;SDS011;540;49.448;8.612;2023-02-21T09:49:41;12.05;;;7.82;;
1106;SDS011;540;49.448;8.612;2023-02-21T09:52:17;13.73;;;7.53;;
1106;SDS011;540;49.448;8.612;2023-02-21T09:54:51;10.85;;;7.32;;
1106;SDS011;540;49.448;8.612;2023-02-21T09:57:25;11.05;;;7.05;;
1106;SDS011;540;49.448;8.612;2023-02-21T09:59:53;14.75;;;7.85;;
1106;SDS011;540;49.448;8.612;2023-02-21T10:02:27;13.07;;;8.38;;
1106;SDS011;540;49.448;8.612;2023-02-21T10:05:06;12.02;;;7.32;;
1106;SDS011;540;49.448;8.612;2023-02-21T10:07:44;15.45;;;9.00;;
1106;SDS011;540;49.448;8.612;2023-02-21T10:12:53;11.93;;;7.90;;
1106;SDS011;540;49.448;8.612;2023-02-21T10:15:34;16.50;;;9.00;;
1106;SDS011;540;49.448;8.612;2023-02-21T10:18:12;13.23;;;8.68;;
1106;SDS011;540;49.448;8.612;2023-02-21T10:20:48;13.30;;;8.60;;
1106;SDS011;540;49.448;8.612;2023-02-21T10:23:20;11.60;;;8.50;;
1106;SDS011;540;49.448;8.612;2023-02-21T10:25:52;16.33;;;8.80;;
1106;SDS011;540;49.448;8.612;2023-02-21T10:28:24;13.23;;;8.32;;
1106;SDS011;540;49.448;8.612;2023-02-21T10:30:53;13.07;;;9.00;;
1106;SDS011;540;49.448;8.612;2023-02-21T10:33:25;11.40;;;8.38;;
1106;SDS011;540;49.448;8.612;2023-02-21T10:35:53;15.40;;;10.48;;
1106;SDS011;540;49.448;8.612;2023-02-21T10:38:23;17.08;;;9.32;;
1106;SDS011;540;49.448;8.612;2023-02-21T10:40:53;11.50;;;8.63;;
1106;SDS011;540;49.448;8.612;2023-02-21T10:43:24;11.55;;;8.10;;
1106;SDS011;540;49.448;8.612;2023-02-21T10:45:59;13.35;;;8.50;;
1106;SDS011;540;49.448;8.612;2023-02-21T10:48:33;14.98;;;9.18;;
1106;SDS011;540;49.448;8.612;2023-02-21T10:51:04;12.30;;;8.30;;
1106;SDS011;540;49.448;8.612;2023-02-21T10:53:34;13.90;;;8.60;;
1106;SDS011;540;49.448;8.612;2023-02-21T10:56:19;18.08;;;9.35;;
1106;SDS011;540;49.448;8.612;2023-02-21T10:58:49;13.65;;;8.50;;
1106;SDS011;540;49.448;8.612;2023-02-21T11:01:20;14.32;;;8.38;;
1106;SDS011;540;49.448;8.612;2023-02-21T11:03:52;13.63;;;8.48;;
1106;SDS011;540;49.448;8.612;2023-02-21T11:06:23;14.85;;;8.73;;
1106;SDS011;540;49.448;8.612;2023-02-21T11:08:58;12.98;;;8.13;;
1106;SDS011;540;49.448;8.612;2023-02-21T11:11:34;13.90;;;8.32;;
1106;SDS011;540;49.448;8.612;2023-02-21T11:14:19;13.68;;;9.07;;
1106;SDS011;540;49.448;8.612;2023-02-21T11:17:03;14.60;;;8.63;;
1106;SDS011;540;49.448;8.612;2023-02-21T11:19:42;11.65;;;8.48;;
1106;SDS011;540;49.448;8.612;2023-02-21T11:22:12;12.38;;;7.65;;
1106;SDS011;540;49.448;8.612;2023-02-21T11:24:45;15.38;;;8.13;;
1106;SDS011;540;49.448;8.612;2023-02-21T11:27:17;13.50;;;8.13;;
1106;SDS011;540;49.448;8.612;2023-02-21T11:29:46;12.95;;;7.60;;
1106;SDS011;540;49.448;8.612;2023-02-21T11:32:20;10.50;;;7.45;;
1106;SDS011;540;49.448;8.612;2023-02-21T11:35:00;11.70;;;8.10;;
1106;SDS011;540;49.448;8.612;2023-02-21T11:37:34;12.77;;;7.65;;
1106;SDS011;540;49.448;8.612;2023-02-21T11:40:25;11.60;;;7.80;;
1106;SDS011;540;49.448;8.612;2023-02-21T11:43:10;13.38;;;7.55;;
1106;SDS011;540;49.448;8.612;2023-02-21T11:46:01;13.27;;;8.40;;
1106;SDS011;540;49.448;8.612;2023-02-21T11:48:33;15.38;;;8.18;;
1106;SDS011;540;49.448;8.612;2023-02-21T11:53:44;13.68;;;8.45;;
1106;SDS011;540;49.448;8.612;2023-02-21T11:56:16;13.18;;;7.70;;
1106;SDS011;540;49.448;8.612;2023-02-21T11:58:49;13.90;;;8.35;;
1106;SDS011;540;49.448;8.612;2023-02-21T12:01:23;14.20;;;8.05;;
1106;SDS011;540;49.448;8.612;2023-02-21T12:04:10;12.43;;;7.80;;
1106;SDS011;540;49.448;8.612;2023-02-21T12:06:49;10.77;;;7.53;;
1106;SDS011;540;49.448;8.612;2023-02-21T12:09:24;12.52;;;8.00;;
1106;SDS011;540;49.448;8.612;2023-02-21T12:12:03;14.10;;;7.97;;
1106;SDS011;540;49.448;8.612;2023-02-21T12:14:46;13.05;;;8.05;;
1106;SDS011;540;49.448;8.612;2023-02-21T12:17:28;12.38;;;7.55;;
1106;SDS011;540;49.448;8.612;2023-02-21T12:20:14;11.13;;;7.32;;
1106;SDS011;540;49.448;8.612;2023-02-21T12:22:56;13.77;;;8.30;;
1106;SDS011;540;49.448;8.612;2023-02-21T12:25:31;11.55;;;7.00;;
1106;SDS011;540;49.448;8.612;2023-02-21T12:28:10;12.07;;;7.05;;
1106;SDS011;540;49.448;8.612;2023-02-21T12:30:58;12.73;;;7.35;;
1106;SDS011;540;49.448;8.612;2023-02-21T12:33:41;20.05;;;8.23;;
1106;SDS011;540;49.448;8.612;2023-02-21T12:36:13;11.93;;;6.85;;
1106;SDS011;540;49.448;8.612;2023-02-21T12:38:56;11.48;;;7.78;;
1106;SDS011;540;49.448;8.612;2023-02-21T12:41:36;12.57;;;7.28;;
1106;SDS011;540;49.448;8.612;2023-02-21T12:44:11;8.57;;;5.93;;
1106;SDS011;540;49.448;8.612;2023-02-21T12:46:42;10.38;;;6.53;;
1106;SDS011;540;49.448;8.612;2023-02-21T12:49:17;8.70;;;5.53;;
1106;SDS011;540;49.448;8.612;2023-02-21T12:51:52;9.18;;;6.13;;
1106;SDS011;540;49.448;8.612;2023-02-21T12:54:33;10.53;;;5.53;;
1106;SDS011;540;49.448;8.612;2023-02-21T12:57:07;9.50;;;5.30;;
1106;SDS011;540;49.448;8.612;2023-02-21T12:59:42;9.45;;;5.18;;
1106;SDS011;540;49.448;8.612;2023-02-21T13:02:18;8.30;;;5.13;;
1106;SDS011;540;49.448;8.612;2023-02-21T13:04:52;9.38;;;4.93;;
1106;SDS011;540;49.448;8.612;2023-02-21T13:07:24;8.35;;;4.80;;
1106;SDS011;540;49.448;8.612;2023-02-21T13:12:32;7.75;;;4.70;;
1106;SDS011;540;49.448;8.612;2023-02-21T13:15:12;7.77;;;5.03;;
1106;SDS011;540;49.448;8.612;2023-02-21T13:17:47;7.38;;;5.25;;
1106;SDS011;540;49.448;8.612;2023-02-21T13:20:21;9.43;;;4.68;;
1106;SDS011;540;49.448;8.612;2023-02-21T13:26:14;10.23;;;5.53;;
1106;SDS011;540;49.448;8.612;2023-02-21T13:28:51;9.32;;;4.88;;
1106;SDS011;540;49.448;8.612;2023-02-21T13:31:21;8.88;;;4.53;;
1106;SDS011;540;49.448;8.612;2023-02-21T13:33:51;6.03;;;4.30;;
1106;SDS011;540;49.448;8.612;2023-02-21T13:36:24;11.23;;;6.03;;
1106;SDS011;540;49.448;8.612;2023-02-21T13:38:59;9.25;;;4.72;;
1106;SDS011;540;49.448;8.612;2023-02-21T13:41:32;6.85;;;3.85;;
1106;SDS011;540;49.448;8.612;2023-02-21T13:44:04;7.00;;;4.20;;
1106;SDS011;540;49.448;8.612;2023-02-21T13:55:25;6.82;;;4.28;;
1106;SDS011;540;49.448;8.612;2023-02-21T14:10:34;11.80;;;7.38;;
1106;SDS011;540;49.448;8.612;2023-02-21T14:13:07;8.02;;;3.20;;
1106;SDS011;540;49.448;8.612;2023-02-21T14:15:46;7.82;;;4.15;;
1106;SDS011;540;49.448;8.612;2023-02-21T14:18:19;5.85;;;3.20;;
1106;SDS011;540;49.448;8.612;2023-02-21T14:20:51;5.90;;;3.33;;
1106;SDS011;540;49.448;8.612;2023-02-21T14:23:22;7.53;;;3.63;;
1106;SDS011;540;49.448;8.612;2023-02-21T14:25:58;6.00;;;3.45;;
1106;SDS011;540;49.448;8.612;2023-02-21T14:34:16;6.10;;;3.15;;
1106;SDS011;540;49.448;8.612;2023-02-21T14:36:49;6.72;;;3.42;;
1106;SDS011;540;49.448;8.612;2023-02-21T14:39:18;6.50;;;3.35;;
1106;SDS011;540;49.448;8.612;2023-02-21T14:41:54;5.30;;;3.25;;
1106;SDS011;540;49.448;8.612;2023-02-21T14:44:39;6.40;;;3.15;;
1106;SDS011;540;49.448;8.612;2023-02-21T14:47:34;8.05;;;3.50;;
1106;SDS011;540;49.448;8.612;2023-02-21T14:50:14;7.40;;;2.78;;
1106;SDS011;540;49.448;8.612;2023-02-21T14:53:03;6.43;;;3.38;;
1106;SDS011;540;49.448;8.612;2023-02-21T14:58:58;8.32;;;3.08;;
1106;SDS011;540;49.448;8.612;2023-02-21T15:02:02;7.50;;;3.27;;
1106;SDS011;540;49.448;8.612;2023-02-21T15:04:43;7.45;;;3.13;;
1106;SDS011;540;49.448;8.612;2023-02-21T15:07:17;6.43;;;3.78;;
1106;SDS011;540;49.448;8.612;2023-02-21T15:10:05;5.35;;;2.65;;
1106;SDS011;540;49.448;8.612;2023-02-21T15:12:38;4.10;;;2.22;;
1106;SDS011;540;49.448;8.612;2023-02-21T15:15:14;4.43;;;2.58;;
1106;SDS011;540;49.448;8.612;2023-02-21T15:17:44;4.82;;;2.40;;
1106;SDS011;540;49.448;8.612;2023-02-21T15:20:24;4.10;;;2.10;;
1106;SDS011;540;49.448;8.612;2023-02-21T15:22:55;4.65;;;1.75;;
1106;SDS011;540;49.448;8.612;2023-02-21T15:25:26;3.58;;;1.98;;
1106;SDS011;540;49.448;8.612;2023-02-21T15:27:55;9.05;;;5.28;;
1106;SDS011;540;49.448;8.612;2023-02-21T15:30:38;4.07;;;1.77;;
1106;SDS011;540;49.448;8.612;2023-02-21T15:33:10;6.03;;;2.25;;
1106;SDS011;540;49.448;8.612;2023-02-21T15:35:44;2.20;;;1.30;;
1106;SDS011;540;49.448;8.612;2023-02-21T15:38:17;3.55;;;1.90;;
1106;SDS011;540;49.448;8.612;2023-02-21T15:40:49;2.65;;;1.67;;
1106;SDS011;540;49.448;8.612;2023-02-21T15:43:24;6.68;;;2.05;;
1106;SDS011;540;49.448;8.612;2023-02-21T15:45:57;3.50;;;1.95;;
1106;SDS011;540;49.448;8.612;2023-02-21T15:48:27;3.70;;;1.35;;
1106;SDS011;540;49.448;8.612;2023-02-21T15:50:59;3.92;;;2.05;;
1106;SDS011;540;49.448;8.612;2023-02-21T15:53:30;3.87;;;1.63;;
1106;SDS011;540;49.448;8.612;2023-02-21T15:56:14;5.75;;;2.17;;
1106;SDS011;540;49.448;8.612;2023-02-21T16:01:36;4.10;;;1.88;;
1106;SDS011;540;49.448;8.612;2023-02-21T16:04:15;4.97;;;1.70;;
1106;SDS011;540;49.448;8.612;2023-02-21T16:06:47;3.95;;;1.83;;
1106;SDS011;540;49.448;8.612;2023-02-21T16:09:19;6.60;;;2.28;;
1106;SDS011;540;49.448;8.612;2023-02-21T16:11:51;3.67;;;1.58;;
1106;SDS011;540;49.448;8.612;2023-02-21T16:14:22;3.25;;;1.70;;
1106;SDS011;540;49.448;8.612;2023-02-21T16:16:57;5.70;;;2.30;;
1106;SDS011;540;49.448;8.612;2023-02-21T16:19:39;5.25;;;2.55;;
1106;SDS011;540;49.448;8.612;2023-02-21T16:22:11;4.88;;;2.28;;
1106;SDS011;540;49.448;8.612;2023-02-21T16:24:47;3.97;;;1.80;;
1106;SDS011;540;49.448;8.612;2023-02-21T16:27:15;6.38;;;1.80;;
1106;SDS011;540;49.448;8.612;2023-02-21T16:29:44;7.88;;;2.65;;
1106;SDS011;540;49.448;8.612;2023-02-21T16:32:14;5.53;;;2.17;;
1106;SDS011;540;49.448;8.612;2023-02-21T16:34:45;6.18;;;2.83;;
1106;SDS011;540;49.448;8.612;2023-02-21T16:37:14;4.85;;;2.05;;
1106;SDS011;540;49.448;8.612;2023-02-21T16:39:43;5.07;;;2.72;;
1106;SDS011;540;49.448;8.612;2023-02-21T16:42:10;8.23;;;3.47;;
1106;SDS011;540;49.448;8.612;2023-02-21T16:44:38;7.65;;;2.90;;
1106;SDS011;540;49.448;8.612;2023-02-21T16:47:11;7.18;;;3.35;;
1106;SDS011;540;49.448;8.612;2023-02-21T16:49:41;6.63;;;2.88;;
1106;SDS011;540;49.448;8.612;2023-02-21T16:52:10;10.93;;;4.22;;
1106;SDS011;540;49.448;8.612;2023-02-21T16:54:41;5.78;;;3.00;;
1106;SDS011;540;49.448;8.612;2023-02-21T16:57:09;5.65;;;2.72;;